sensor_id;sensor_type;location;lat;lon;timestamp;P1;durP1;ratioP1;P2;durP2;ratioP2
37151;SDS011;23046;50.112;8.952;2023-02-11T00:00:02;39.30;;;18.95;;
37151;SDS011;23046;50.112;8.952;2023-02-11T00:00:15;39.57;;;18.67;;
37151;SDS011;23046;50.112;8.952;2023-02-11T00:00:25;39.40;;;18.88;;
37151;SDS011;23046;50.112;8.952;2023-02-11T00:00:39;37.27;;;18.93;;
37151;SDS011;23046;50.112;8.952;2023-02-11T00:00:49;38.60;;;19.05;;
37151;SDS011;23046;50.112;8.952;2023-02-11T00:01:04;38.30;;;18.80;;
37151;SDS011;23046;50.112;8.952;2023-02-11T00:01:25;43.47;;;19.55;;
37151;SDS011;23046;50.112;8.952;2023-02-11T00:01:36;46.17;;;21.08;;
37151;SDS011;23046;50.112;8.952;2023-02-11T00:01:46;42.95;;;20.55;;
37151;SDS011;23046;50.112;8.952;2023-02-11T00:01:56;37.50;;;19.47;;
37151;SDS011;23046;50.112;8.952;2023-02-11T00:02:06;37.17;;;19.20;;
37151;SDS011;23046;50.112;8.952;2023-02-11T00:02:17;36.60;;;19.27;;
37151;SDS011;23046;50.112;8.952;2023-02-11T00:02:27;38.40;;;19.75;;
37151;SDS011;23046;50.112;8.952;2023-02-11T00:02:38;40.03;;;20.17;;
37151;SDS011;23046;50.112;8.952;2023-02-11T00:02:48;40.50;;;19.70;;
37151;SDS011;23046;50.112;8.952;2023-02-11T00:02:59;40.73;;;19.47;;
37151;SDS011;23046;50.112;8.952;2023-02-11T00:03:09;38.70;;;18.77;;
37151;SDS011;23046;50.112;8.952;2023-02-11T00:03:19;37.13;;;18.47;;
37151;SDS011;23046;50.112;8.952;2023-02-11T00:03:29;33.77;;;17.40;;
37151;SDS011;23046;50.112;8.952;2023-02-11T00:03:40;33.80;;;17.37;;
37151;SDS011;23046;50.112;8.952;2023-02-11T00:03:50;36.67;;;18.30;;
37151;SDS011;23046;50.112;8.952;2023-02-11T00:04:01;39.13;;;19.27;;
37151;SDS011;23046;50.112;8.952;2023-02-11T00:04:11;40.45;;;19.52;;
37151;SDS011;23046;50.112;8.952;2023-02-11T00:04:22;37.90;;;19.03;;
37151;SDS011;23046;50.112;8.952;2023-02-11T00:04:32;37.50;;;18.93;;
37151;SDS011;23046;50.112;8.952;2023-02-11T00:04:42;36.28;;;18.98;;
37151;SDS011;23046;50.112;8.952;2023-02-11T00:04:52;39.30;;;19.70;;
37151;SDS011;23046;50.112;8.952;2023-02-11T00:05:03;39.40;;;19.80;;
37151;SDS011;23046;50.112;8.952;2023-02-11T00:05:13;38.77;;;19.63;;
37151;SDS011;23046;50.112;8.952;2023-02-11T00:05:23;34.92;;;18.83;;
37151;SDS011;23046;50.112;8.952;2023-02-11T00:05:33;37.07;;;18.67;;
37151;SDS011;23046;50.112;8.952;2023-02-11T00:05:43;36.90;;;18.53;;
37151;SDS011;23046;50.112;8.952;2023-02-11T00:05:57;38.67;;;18.60;;
37151;SDS011;23046;50.112;8.952;2023-02-11T00:06:09;38.05;;;18.58;;
37151;SDS011;23046;50.112;8.952;2023-02-11T00:06:19;37.85;;;18.55;;
37151;SDS011;23046;50.112;8.952;2023-02-11T00:06:30;38.60;;;18.80;;
37151;SDS011;23046;50.112;8.952;2023-02-11T00:06:41;39.47;;;18.77;;
37151;SDS011;23046;50.112;8.952;2023-02-11T00:06:51;41.33;;;19.37;;
37151;SDS011;23046;50.112;8.952;2023-02-11T00:07:01;40.20;;;19.75;;
37151;SDS011;23046;50.112;8.952;2023-02-11T00:07:11;40.37;;;19.40;;
37151;SDS011;23046;50.112;8.952;2023-02-11T00:07:21;38.63;;;19.23;;
37151;SDS011;23046;50.112;8.952;2023-02-11T00:07:32;36.47;;;18.73;;
37151;SDS011;23046;50.112;8.952;2023-02-11T00:07:43;37.35;;;19.13;;
37151;SDS011;23046;50.112;8.952;2023-02-11T00:07:53;37.23;;;18.80;;
37151;SDS011;23046;50.112;8.952;2023-02-11T00:08:03;37.67;;;19.13;;
37151;SDS011;23046;50.112;8.952;2023-02-11T00:08:13;36.00;;;18.92;;
37151;SDS011;23046;50.112;8.952;2023-02-11T00:08:25;36.53;;;18.90;;
37151;SDS011;23046;50.112;8.952;2023-02-11T00:08:36;35.80;;;18.27;;
37151;SDS011;23046;50.112;8.952;2023-02-11T00:08:46;35.10;;;18.08;;
37151;SDS011;23046;50.112;8.952;2023-02-11T00:08:57;35.23;;;17.90;;
37151;SDS011;23046;50.112;8.952;2023-02-11T00:09:07;36.87;;;18.30;;
37151;SDS011;23046;50.112;8.952;2023-02-11T00:09:17;37.10;;;18.48;;
37151;SDS011;23046;50.112;8.952;2023-02-11T00:09:27;36.37;;;18.03;;
37151;SDS011;23046;50.112;8.952;2023-02-11T00:09:37;35.40;;;18.20;;
37151;SDS011;23046;50.112;8.952;2023-02-11T00:09:48;34.60;;;18.07;;
37151;SDS011;23046;50.112;8.952;2023-02-11T00:09:58;35.67;;;18.57;;
37151;SDS011;23046;50.112;8.952;2023-02-11T00:10:08;38.35;;;19.20;;
37151;SDS011;23046;50.112;8.952;2023-02-11T00:10:18;38.67;;;19.57;;
37151;SDS011;23046;50.112;8.952;2023-02-11T00:10:29;39.93;;;19.60;;
37151;SDS011;23046;50.112;8.952;2023-02-11T00:10:39;37.23;;;18.97;;
37151;SDS011;23046;50.112;8.952;2023-02-11T00:10:53;37.03;;;18.73;;
37151;SDS011;23046;50.112;8.952;2023-02-11T00:11:03;35.60;;;18.65;;
37151;SDS011;23046;50.112;8.952;2023-02-11T00:11:14;37.75;;;18.67;;
37151;SDS011;23046;50.112;8.952;2023-02-11T00:11:25;37.05;;;18.65;;
37151;SDS011;23046;50.112;8.952;2023-02-11T00:11:39;37.90;;;19.15;;
37151;SDS011;23046;50.112;8.952;2023-02-11T00:11:49;38.45;;;19.30;;
37151;SDS011;23046;50.112;8.952;2023-02-11T00:11:59;38.93;;;19.67;;
37151;SDS011;23046;50.112;8.952;2023-02-11T00:12:09;38.83;;;20.13;;
37151;SDS011;23046;50.112;8.952;2023-02-11T00:12:20;40.57;;;20.13;;
37151;SDS011;23046;50.112;8.952;2023-02-11T00:12:30;39.97;;;20.30;;
37151;SDS011;23046;50.112;8.952;2023-02-11T00:12:40;41.15;;;20.08;;
37151;SDS011;23046;50.112;8.952;2023-02-11T00:12:52;40.47;;;20.13;;
37151;SDS011;23046;50.112;8.952;2023-02-11T00:13:02;41.30;;;19.57;;
37151;SDS011;23046;50.112;8.952;2023-02-11T00:13:12;40.83;;;19.20;;
37151;SDS011;23046;50.112;8.952;2023-02-11T00:13:22;39.40;;;18.97;;
37151;SDS011;23046;50.112;8.952;2023-02-11T00:13:33;36.67;;;18.70;;
37151;SDS011;23046;50.112;8.952;2023-02-11T00:13:43;36.47;;;18.67;;
37151;SDS011;23046;50.112;8.952;2023-02-11T00:13:54;36.10;;;18.13;;
37151;SDS011;23046;50.112;8.952;2023-02-11T00:14:05;35.87;;;17.73;;
37151;SDS011;23046;50.112;8.952;2023-02-11T00:14:16;36.88;;;18.02;;
37151;SDS011;23046;50.112;8.952;2023-02-11T00:14:27;35.67;;;18.03;;
37151;SDS011;23046;50.112;8.952;2023-02-11T00:14:37;35.00;;;18.60;;
37151;SDS011;23046;50.112;8.952;2023-02-11T00:14:47;32.73;;;18.03;;
37151;SDS011;23046;50.112;8.952;2023-02-11T00:14:57;34.90;;;18.52;;
37151;SDS011;23046;50.112;8.952;2023-02-11T00:15:08;37.37;;;18.53;;
37151;SDS011;23046;50.112;8.952;2023-02-11T00:15:18;39.30;;;19.47;;
37151;SDS011;23046;50.112;8.952;2023-02-11T00:15:30;39.55;;;19.33;;
37151;SDS011;23046;50.112;8.952;2023-02-11T00:15:40;36.77;;;18.87;;
37151;SDS011;23046;50.112;8.952;2023-02-11T00:15:50;36.17;;;18.80;;
37151;SDS011;23046;50.112;8.952;2023-02-11T00:16:04;35.67;;;18.60;;
37151;SDS011;23046;50.112;8.952;2023-02-11T00:16:16;35.90;;;18.40;;
37151;SDS011;23046;50.112;8.952;2023-02-11T00:16:27;37.00;;;18.67;;
37151;SDS011;23046;50.112;8.952;2023-02-11T00:16:37;37.87;;;18.83;;
37151;SDS011;23046;50.112;8.952;2023-02-11T00:16:47;40.07;;;18.73;;
37151;SDS011;23046;50.112;8.952;2023-02-11T00:16:57;36.37;;;17.73;;
37151;SDS011;23046;50.112;8.952;2023-02-11T00:17:07;35.58;;;17.70;;
37151;SDS011;23046;50.112;8.952;2023-02-11T00:17:17;31.77;;;17.17;;
37151;SDS011;23046;50.112;8.952;2023-02-11T00:17:28;32.13;;;17.40;;
37151;SDS011;23046;50.112;8.952;2023-02-11T00:17:38;33.77;;;17.47;;
37151;SDS011;23046;50.112;8.952;2023-02-11T00:17:48;35.13;;;18.07;;
37151;SDS011;23046;50.112;8.952;2023-02-11T00:17:58;36.45;;;18.77;;
37151;SDS011;23046;50.112;8.952;2023-02-11T00:18:08;35.87;;;18.83;;
37151;SDS011;23046;50.112;8.952;2023-02-11T00:18:19;38.13;;;18.90;;
37151;SDS011;23046;50.112;8.952;2023-02-11T00:18:29;38.40;;;18.87;;
37151;SDS011;23046;50.112;8.952;2023-02-11T00:18:39;39.30;;;19.63;;
37151;SDS011;23046;50.112;8.952;2023-02-11T00:18:50;36.65;;;19.27;;
37151;SDS011;23046;50.112;8.952;2023-02-11T00:19:02;36.17;;;18.92;;
37151;SDS011;23046;50.112;8.952;2023-02-11T00:19:12;34.67;;;17.90;;
37151;SDS011;23046;50.112;8.952;2023-02-11T00:19:22;36.00;;;17.58;;
37151;SDS011;23046;50.112;8.952;2023-02-11T00:19:33;35.33;;;17.40;;
37151;SDS011;23046;50.112;8.952;2023-02-11T00:19:43;35.67;;;17.80;;
37151;SDS011;23046;50.112;8.952;2023-02-11T00:19:53;33.73;;;17.53;;
37151;SDS011;23046;50.112;8.952;2023-02-11T00:20:03;34.90;;;17.67;;
37151;SDS011;23046;50.112;8.952;2023-02-11T00:20:14;37.55;;;18.10;;
37151;SDS011;23046;50.112;8.952;2023-02-11T00:20:24;38.60;;;18.83;;
37151;SDS011;23046;50.112;8.952;2023-02-11T00:20:34;37.83;;;19.00;;
37151;SDS011;23046;50.112;8.952;2023-02-11T00:20:47;37.58;;;19.15;;
37151;SDS011;23046;50.112;8.952;2023-02-11T00:20:57;38.73;;;19.33;;
37151;SDS011;23046;50.112;8.952;2023-02-11T00:21:18;37.83;;;19.17;;
37151;SDS011;23046;50.112;8.952;2023-02-11T00:21:29;35.97;;;18.55;;
37151;SDS011;23046;50.112;8.952;2023-02-11T00:21:39;35.30;;;18.10;;
37151;SDS011;23046;50.112;8.952;2023-02-11T00:21:49;33.97;;;17.87;;
37151;SDS011;23046;50.112;8.952;2023-02-11T00:21:59;36.65;;;18.50;;
37151;SDS011;23046;50.112;8.952;2023-02-11T00:22:10;37.10;;;18.77;;
37151;SDS011;23046;50.112;8.952;2023-02-11T00:22:20;36.97;;;18.43;;
37151;SDS011;23046;50.112;8.952;2023-02-11T00:22:30;33.83;;;17.43;;
37151;SDS011;23046;50.112;8.952;2023-02-11T00:22:40;34.60;;;17.63;;
37151;SDS011;23046;50.112;8.952;2023-02-11T00:22:50;34.95;;;17.77;;
37151;SDS011;23046;50.112;8.952;2023-02-11T00:23:01;35.63;;;17.80;;
37151;SDS011;23046;50.112;8.952;2023-02-11T00:23:11;34.83;;;17.47;;
37151;SDS011;23046;50.112;8.952;2023-02-11T00:23:21;39.37;;;19.17;;
37151;SDS011;23046;50.112;8.952;2023-02-11T00:23:31;39.63;;;20.10;;
37151;SDS011;23046;50.112;8.952;2023-02-11T00:23:42;38.40;;;19.65;;
37151;SDS011;23046;50.112;8.952;2023-02-11T00:23:52;34.10;;;17.90;;
37151;SDS011;23046;50.112;8.952;2023-02-11T00:24:03;34.03;;;17.88;;
37151;SDS011;23046;50.112;8.952;2023-02-11T00:24:14;36.08;;;18.88;;
37151;SDS011;23046;50.112;8.952;2023-02-11T00:24:24;35.67;;;19.33;;
37151;SDS011;23046;50.112;8.952;2023-02-11T00:24:34;36.60;;;19.83;;
37151;SDS011;23046;50.112;8.952;2023-02-11T00:24:45;35.50;;;19.58;;
37151;SDS011;23046;50.112;8.952;2023-02-11T00:24:55;37.73;;;19.57;;
37151;SDS011;23046;50.112;8.952;2023-02-11T00:25:06;39.28;;;19.75;;
37151;SDS011;23046;50.112;8.952;2023-02-11T00:25:16;40.73;;;20.73;;
37151;SDS011;23046;50.112;8.952;2023-02-11T00:25:26;40.73;;;21.50;;
37151;SDS011;23046;50.112;8.952;2023-02-11T00:25:40;39.70;;;21.10;;
37151;SDS011;23046;50.112;8.952;2023-02-11T00:25:51;38.83;;;19.65;;
37151;SDS011;23046;50.112;8.952;2023-02-11T00:26:01;38.10;;;19.00;;
37151;SDS011;23046;50.112;8.952;2023-02-11T00:26:14;36.83;;;18.33;;
37151;SDS011;23046;50.112;8.952;2023-02-11T00:26:27;33.70;;;18.08;;
37151;SDS011;23046;50.112;8.952;2023-02-11T00:26:38;33.97;;;18.40;;
37151;SDS011;23046;50.112;8.952;2023-02-11T00:26:48;36.27;;;19.33;;
37151;SDS011;23046;50.112;8.952;2023-02-11T00:26:58;36.97;;;19.30;;
37151;SDS011;23046;50.112;8.952;2023-02-11T00:27:08;36.67;;;18.77;;
37151;SDS011;23046;50.112;8.952;2023-02-11T00:27:18;36.97;;;18.33;;
37151;SDS011;23046;50.112;8.952;2023-02-11T00:27:29;37.70;;;18.00;;
37151;SDS011;23046;50.112;8.952;2023-02-11T00:27:39;36.22;;;18.05;;
37151;SDS011;23046;50.112;8.952;2023-02-11T00:27:49;36.23;;;18.20;;
37151;SDS011;23046;50.112;8.952;2023-02-11T00:27:59;36.00;;;18.43;;
37151;SDS011;23046;50.112;8.952;2023-02-11T00:28:10;37.70;;;18.37;;
37151;SDS011;23046;50.112;8.952;2023-02-11T00:28:23;39.78;;;18.75;;
37151;SDS011;23046;50.112;8.952;2023-02-11T00:28:33;39.97;;;18.67;;
37151;SDS011;23046;50.112;8.952;2023-02-11T00:28:44;36.35;;;18.15;;
37151;SDS011;23046;50.112;8.952;2023-02-11T00:28:54;35.77;;;18.53;;
37151;SDS011;23046;50.112;8.952;2023-02-11T00:29:06;35.42;;;18.38;;
37151;SDS011;23046;50.112;8.952;2023-02-11T00:29:16;34.95;;;18.08;;
37151;SDS011;23046;50.112;8.952;2023-02-11T00:29:26;33.30;;;17.90;;
37151;SDS011;23046;50.112;8.952;2023-02-11T00:29:37;33.67;;;18.60;;
37151;SDS011;23046;50.112;8.952;2023-02-11T00:29:47;34.65;;;18.50;;
37151;SDS011;23046;50.112;8.952;2023-02-11T00:29:58;37.08;;;18.65;;
37151;SDS011;23046;50.112;8.952;2023-02-11T00:30:09;38.20;;;18.55;;
37151;SDS011;23046;50.112;8.952;2023-02-11T00:30:19;39.00;;;18.90;;
37151;SDS011;23046;50.112;8.952;2023-02-11T00:30:30;37.97;;;18.83;;
37151;SDS011;23046;50.112;8.952;2023-02-11T00:30:40;39.03;;;18.95;;
37151;SDS011;23046;50.112;8.952;2023-02-11T00:30:57;38.50;;;18.38;;
37151;SDS011;23046;50.112;8.952;2023-02-11T00:31:07;34.05;;;17.90;;
37151;SDS011;23046;50.112;8.952;2023-02-11T00:31:19;34.53;;;18.40;;
37151;SDS011;23046;50.112;8.952;2023-02-11T00:31:32;36.75;;;19.08;;
37151;SDS011;23046;50.112;8.952;2023-02-11T00:31:42;37.85;;;19.23;;
37151;SDS011;23046;50.112;8.952;2023-02-11T00:31:52;35.97;;;18.90;;
37151;SDS011;23046;50.112;8.952;2023-02-11T00:32:02;34.53;;;18.10;;
37151;SDS011;23046;50.112;8.952;2023-02-11T00:32:14;33.33;;;17.88;;
37151;SDS011;23046;50.112;8.952;2023-02-11T00:32:24;33.37;;;17.67;;
37151;SDS011;23046;50.112;8.952;2023-02-11T00:32:34;35.60;;;18.33;;
37151;SDS011;23046;50.112;8.952;2023-02-11T00:32:45;39.60;;;18.65;;
37151;SDS011;23046;50.112;8.952;2023-02-11T00:32:56;40.73;;;19.23;;
37151;SDS011;23046;50.112;8.952;2023-02-11T00:33:06;39.30;;;19.27;;
37151;SDS011;23046;50.112;8.952;2023-02-11T00:33:16;38.05;;;19.80;;
37151;SDS011;23046;50.112;8.952;2023-02-11T00:33:27;40.95;;;20.13;;
37151;SDS011;23046;50.112;8.952;2023-02-11T00:33:37;40.70;;;20.13;;
37151;SDS011;23046;50.112;8.952;2023-02-11T00:33:49;38.05;;;19.55;;
37151;SDS011;23046;50.112;8.952;2023-02-11T00:33:59;34.23;;;18.60;;
37151;SDS011;23046;50.112;8.952;2023-02-11T00:34:09;34.00;;;18.37;;
37151;SDS011;23046;50.112;8.952;2023-02-11T00:34:20;33.97;;;17.63;;
37151;SDS011;23046;50.112;8.952;2023-02-11T00:34:30;34.47;;;17.85;;
37151;SDS011;23046;50.112;8.952;2023-02-11T00:34:41;36.30;;;18.30;;
37151;SDS011;23046;50.112;8.952;2023-02-11T00:34:51;36.92;;;18.60;;
37151;SDS011;23046;50.112;8.952;2023-02-11T00:35:02;37.50;;;18.63;;
37151;SDS011;23046;50.112;8.952;2023-02-11T00:35:12;36.50;;;18.37;;
37151;SDS011;23046;50.112;8.952;2023-02-11T00:35:22;36.40;;;18.70;;
37151;SDS011;23046;50.112;8.952;2023-02-11T00:35:33;36.57;;;18.87;;
37151;SDS011;23046;50.112;8.952;2023-02-11T00:35:45;34.80;;;18.48;;
37151;SDS011;23046;50.112;8.952;2023-02-11T00:35:55;34.90;;;18.33;;
37151;SDS011;23046;50.112;8.952;2023-02-11T00:36:06;37.40;;;19.60;;
37151;SDS011;23046;50.112;8.952;2023-02-11T00:36:18;39.15;;;19.98;;
37151;SDS011;23046;50.112;8.952;2023-02-11T00:36:30;39.40;;;19.58;;
37151;SDS011;23046;50.112;8.952;2023-02-11T00:36:40;38.83;;;19.07;;
37151;SDS011;23046;50.112;8.952;2023-02-11T00:36:51;39.37;;;19.20;;
37151;SDS011;23046;50.112;8.952;2023-02-11T00:37:01;37.85;;;19.25;;
37151;SDS011;23046;50.112;8.952;2023-02-11T00:37:11;36.50;;;19.00;;
37151;SDS011;23046;50.112;8.952;2023-02-11T00:37:25;35.90;;;19.30;;
37151;SDS011;23046;50.112;8.952;2023-02-11T00:37:35;36.87;;;20.23;;
37151;SDS011;23046;50.112;8.952;2023-02-11T00:37:46;37.73;;;20.50;;
37151;SDS011;23046;50.112;8.952;2023-02-11T00:37:56;36.30;;;19.73;;
37151;SDS011;23046;50.112;8.952;2023-02-11T00:38:06;36.70;;;18.87;;
37151;SDS011;23046;50.112;8.952;2023-02-11T00:38:16;36.67;;;18.57;;
37151;SDS011;23046;50.112;8.952;2023-02-11T00:38:27;36.57;;;18.40;;
37151;SDS011;23046;50.112;8.952;2023-02-11T00:38:37;36.70;;;18.23;;
37151;SDS011;23046;50.112;8.952;2023-02-11T00:38:47;36.13;;;18.20;;
37151;SDS011;23046;50.112;8.952;2023-02-11T00:38:58;37.45;;;18.58;;
37151;SDS011;23046;50.112;8.952;2023-02-11T00:39:09;38.27;;;19.07;;
37151;SDS011;23046;50.112;8.952;2023-02-11T00:39:19;39.60;;;19.37;;
37151;SDS011;23046;50.112;8.952;2023-02-11T00:39:29;38.03;;;19.23;;
37151;SDS011;23046;50.112;8.952;2023-02-11T00:39:40;36.80;;;19.07;;
37151;SDS011;23046;50.112;8.952;2023-02-11T00:39:50;37.37;;;19.10;;
37151;SDS011;23046;50.112;8.952;2023-02-11T00:40:00;38.92;;;19.25;;
37151;SDS011;23046;50.112;8.952;2023-02-11T00:40:11;40.97;;;19.57;;
37151;SDS011;23046;50.112;8.952;2023-02-11T00:40:21;40.78;;;19.52;;
37151;SDS011;23046;50.112;8.952;2023-02-11T00:40:31;39.90;;;19.53;;
37151;SDS011;23046;50.112;8.952;2023-02-11T00:40:42;38.20;;;19.40;;
37151;SDS011;23046;50.112;8.952;2023-02-11T00:40:52;37.00;;;19.23;;
37151;SDS011;23046;50.112;8.952;2023-02-11T00:41:02;37.35;;;19.02;;
37151;SDS011;23046;50.112;8.952;2023-02-11T00:41:13;37.70;;;18.73;;
37151;SDS011;23046;50.112;8.952;2023-02-11T00:41:23;37.67;;;18.55;;
37151;SDS011;23046;50.112;8.952;2023-02-11T00:41:34;36.92;;;18.60;;
37151;SDS011;23046;50.112;8.952;2023-02-11T00:41:44;36.17;;;18.40;;
37151;SDS011;23046;50.112;8.952;2023-02-11T00:41:56;36.83;;;18.57;;
37151;SDS011;23046;50.112;8.952;2023-02-11T00:42:15;36.40;;;18.70;;
37151;SDS011;23046;50.112;8.952;2023-02-11T00:42:26;39.30;;;19.70;;
37151;SDS011;23046;50.112;8.952;2023-02-11T00:42:36;40.00;;;19.70;;
37151;SDS011;23046;50.112;8.952;2023-02-11T00:42:46;38.97;;;19.35;;
37151;SDS011;23046;50.112;8.952;2023-02-11T00:42:56;38.00;;;18.67;;
37151;SDS011;23046;50.112;8.952;2023-02-11T00:43:07;36.20;;;18.17;;
37151;SDS011;23046;50.112;8.952;2023-02-11T00:43:18;36.43;;;18.20;;
37151;SDS011;23046;50.112;8.952;2023-02-11T00:43:28;35.93;;;18.30;;
37151;SDS011;23046;50.112;8.952;2023-02-11T00:43:38;36.97;;;18.97;;
37151;SDS011;23046;50.112;8.952;2023-02-11T00:43:49;37.38;;;18.98;;
37151;SDS011;23046;50.112;8.952;2023-02-11T00:44:02;37.30;;;18.95;;
37151;SDS011;23046;50.112;8.952;2023-02-11T00:44:12;36.10;;;18.27;;
37151;SDS011;23046;50.112;8.952;2023-02-11T00:44:23;35.63;;;18.03;;
37151;SDS011;23046;50.112;8.952;2023-02-11T00:44:33;35.30;;;18.37;;
37151;SDS011;23046;50.112;8.952;2023-02-11T00:44:43;38.55;;;18.65;;
37151;SDS011;23046;50.112;8.952;2023-02-11T00:44:53;38.43;;;19.07;;
37151;SDS011;23046;50.112;8.952;2023-02-11T00:45:04;38.43;;;19.33;;
37151;SDS011;23046;50.112;8.952;2023-02-11T00:45:14;35.10;;;18.97;;
37151;SDS011;23046;50.112;8.952;2023-02-11T00:45:24;37.33;;;19.00;;
37151;SDS011;23046;50.112;8.952;2023-02-11T00:45:34;38.30;;;19.03;;
37151;SDS011;23046;50.112;8.952;2023-02-11T00:45:45;39.47;;;19.40;;
37151;SDS011;23046;50.112;8.952;2023-02-11T00:45:55;40.85;;;19.90;;
37151;SDS011;23046;50.112;8.952;2023-02-11T00:46:07;41.42;;;19.98;;
37151;SDS011;23046;50.112;8.952;2023-02-11T00:46:17;41.63;;;20.10;;
37151;SDS011;23046;50.112;8.952;2023-02-11T00:46:27;39.40;;;19.57;;
37151;SDS011;23046;50.112;8.952;2023-02-11T00:46:37;36.97;;;18.98;;
37151;SDS011;23046;50.112;8.952;2023-02-11T00:46:47;35.27;;;18.73;;
37151;SDS011;23046;50.112;8.952;2023-02-11T00:46:58;34.63;;;18.37;;
37151;SDS011;23046;50.112;8.952;2023-02-11T00:47:08;35.10;;;18.60;;
37151;SDS011;23046;50.112;8.952;2023-02-11T00:47:19;35.08;;;18.60;;
37151;SDS011;23046;50.112;8.952;2023-02-11T00:47:29;34.50;;;18.38;;
37151;SDS011;23046;50.112;8.952;2023-02-11T00:47:39;35.27;;;18.33;;
37151;SDS011;23046;50.112;8.952;2023-02-11T00:47:50;37.10;;;19.33;;
37151;SDS011;23046;50.112;8.952;2023-02-11T00:48:00;40.00;;;20.23;;
37151;SDS011;23046;50.112;8.952;2023-02-11T00:48:11;40.70;;;20.63;;
37151;SDS011;23046;50.112;8.952;2023-02-11T00:48:21;38.60;;;19.88;;
37151;SDS011;23046;50.112;8.952;2023-02-11T00:48:32;35.57;;;19.37;;
37151;SDS011;23046;50.112;8.952;2023-02-11T00:48:43;35.70;;;19.15;;
37151;SDS011;23046;50.112;8.952;2023-02-11T00:48:54;38.50;;;19.27;;
37151;SDS011;23046;50.112;8.952;2023-02-11T00:49:06;40.20;;;19.23;;
37151;SDS011;23046;50.112;8.952;2023-02-11T00:49:16;38.42;;;19.20;;
37151;SDS011;23046;50.112;8.952;2023-02-11T00:49:27;38.90;;;19.80;;
37151;SDS011;23046;50.112;8.952;2023-02-11T00:49:37;36.87;;;19.37;;
37151;SDS011;23046;50.112;8.952;2023-02-11T00:49:49;38.13;;;18.95;;
37151;SDS011;23046;50.112;8.952;2023-02-11T00:49:59;35.30;;;18.00;;
37151;SDS011;23046;50.112;8.952;2023-02-11T00:50:11;34.55;;;17.90;;
37151;SDS011;23046;50.112;8.952;2023-02-11T00:50:21;33.90;;;18.03;;
37151;SDS011;23046;50.112;8.952;2023-02-11T00:50:31;36.08;;;18.60;;
37151;SDS011;23046;50.112;8.952;2023-02-11T00:50:41;35.93;;;18.40;;
37151;SDS011;23046;50.112;8.952;2023-02-11T00:50:52;35.77;;;18.07;;
37151;SDS011;23046;50.112;8.952;2023-02-11T00:51:02;37.40;;;18.67;;
37151;SDS011;23046;50.112;8.952;2023-02-11T00:51:13;41.90;;;19.95;;
37151;SDS011;23046;50.112;8.952;2023-02-11T00:51:24;42.70;;;20.17;;
37151;SDS011;23046;50.112;8.952;2023-02-11T00:51:34;41.15;;;19.77;;
37151;SDS011;23046;50.112;8.952;2023-02-11T00:51:46;39.58;;;19.15;;
37151;SDS011;23046;50.112;8.952;2023-02-11T00:51:56;39.35;;;19.20;;
37151;SDS011;23046;50.112;8.952;2023-02-11T00:52:07;40.73;;;19.43;;
37151;SDS011;23046;50.112;8.952;2023-02-11T00:52:18;39.72;;;19.77;;
37151;SDS011;23046;50.112;8.952;2023-02-11T00:52:28;38.07;;;19.67;;
37151;SDS011;23046;50.112;8.952;2023-02-11T00:52:38;40.55;;;20.02;;
37151;SDS011;23046;50.112;8.952;2023-02-11T00:52:49;40.70;;;19.47;;
37151;SDS011;23046;50.112;8.952;2023-02-11T00:52:59;42.77;;;20.43;;
37151;SDS011;23046;50.112;8.952;2023-02-11T00:53:09;38.67;;;20.03;;
37151;SDS011;23046;50.112;8.952;2023-02-11T00:53:19;39.90;;;20.63;;
37151;SDS011;23046;50.112;8.952;2023-02-11T00:53:30;40.53;;;20.30;;
37151;SDS011;23046;50.112;8.952;2023-02-11T00:53:40;40.97;;;20.30;;
37151;SDS011;23046;50.112;8.952;2023-02-11T00:53:50;43.03;;;20.60;;
37151;SDS011;23046;50.112;8.952;2023-02-11T00:54:00;42.55;;;20.52;;
37151;SDS011;23046;50.112;8.952;2023-02-11T00:54:11;41.80;;;20.10;;
37151;SDS011;23046;50.112;8.952;2023-02-11T00:54:22;36.78;;;19.23;;
37151;SDS011;23046;50.112;8.952;2023-02-11T00:54:32;35.87;;;19.60;;
37151;SDS011;23046;50.112;8.952;2023-02-11T00:54:43;40.13;;;20.20;;
37151;SDS011;23046;50.112;8.952;2023-02-11T00:54:53;41.63;;;20.50;;
37151;SDS011;23046;50.112;8.952;2023-02-11T00:55:03;40.63;;;19.77;;
37151;SDS011;23046;50.112;8.952;2023-02-11T00:55:15;36.97;;;19.05;;
37151;SDS011;23046;50.112;8.952;2023-02-11T00:55:26;38.08;;;19.13;;
37151;SDS011;23046;50.112;8.952;2023-02-11T00:55:36;36.67;;;18.83;;
37151;SDS011;23046;50.112;8.952;2023-02-11T00:55:46;36.70;;;18.90;;
37151;SDS011;23046;50.112;8.952;2023-02-11T00:55:56;35.83;;;19.03;;
37151;SDS011;23046;50.112;8.952;2023-02-11T00:56:09;37.63;;;19.88;;
37151;SDS011;23046;50.112;8.952;2023-02-11T00:56:19;37.33;;;19.13;;
37151;SDS011;23046;50.112;8.952;2023-02-11T00:56:29;36.50;;;18.53;;
37151;SDS011;23046;50.112;8.952;2023-02-11T00:56:39;36.73;;;17.90;;
37151;SDS011;23046;50.112;8.952;2023-02-11T00:56:50;37.33;;;18.50;;
37151;SDS011;23046;50.112;8.952;2023-02-11T00:57:00;37.70;;;18.70;;
37151;SDS011;23046;50.112;8.952;2023-02-11T00:57:10;38.47;;;19.27;;
37151;SDS011;23046;50.112;8.952;2023-02-11T00:57:21;37.00;;;19.00;;
37151;SDS011;23046;50.112;8.952;2023-02-11T00:57:33;37.58;;;18.40;;
37151;SDS011;23046;50.112;8.952;2023-02-11T00:57:43;36.60;;;18.07;;
37151;SDS011;23046;50.112;8.952;2023-02-11T00:57:53;38.20;;;18.20;;
37151;SDS011;23046;50.112;8.952;2023-02-11T00:58:04;38.00;;;19.00;;
37151;SDS011;23046;50.112;8.952;2023-02-11T00:58:14;39.13;;;19.17;;
37151;SDS011;23046;50.112;8.952;2023-02-11T00:58:26;36.72;;;19.20;;
37151;SDS011;23046;50.112;8.952;2023-02-11T00:58:37;35.70;;;18.80;;
37151;SDS011;23046;50.112;8.952;2023-02-11T00:58:47;35.60;;;19.07;;
37151;SDS011;23046;50.112;8.952;2023-02-11T00:58:57;36.47;;;18.97;;
37151;SDS011;23046;50.112;8.952;2023-02-11T00:59:08;37.47;;;19.45;;
37151;SDS011;23046;50.112;8.952;2023-02-11T00:59:18;38.97;;;19.03;;
37151;SDS011;23046;50.112;8.952;2023-02-11T00:59:28;40.40;;;19.60;;
37151;SDS011;23046;50.112;8.952;2023-02-11T00:59:38;40.73;;;19.50;;
37151;SDS011;23046;50.112;8.952;2023-02-11T00:59:49;40.13;;;19.98;;
37151;SDS011;23046;50.112;8.952;2023-02-11T00:59:59;36.50;;;19.07;;
37151;SDS011;23046;50.112;8.952;2023-02-11T01:00:10;35.00;;;18.50;;
37151;SDS011;23046;50.112;8.952;2023-02-11T01:00:21;34.53;;;18.40;;
37151;SDS011;23046;50.112;8.952;2023-02-11T01:00:31;38.50;;;19.40;;
37151;SDS011;23046;50.112;8.952;2023-02-11T01:00:41;39.00;;;19.50;;
37151;SDS011;23046;50.112;8.952;2023-02-11T01:00:52;36.92;;;18.80;;
37151;SDS011;23046;50.112;8.952;2023-02-11T01:01:03;35.73;;;18.63;;
37151;SDS011;23046;50.112;8.952;2023-02-11T01:01:13;35.65;;;18.35;;
37151;SDS011;23046;50.112;8.952;2023-02-11T01:01:23;38.00;;;18.30;;
37151;SDS011;23046;50.112;8.952;2023-02-11T01:01:34;36.65;;;18.02;;
37151;SDS011;23046;50.112;8.952;2023-02-11T01:01:45;36.83;;;18.52;;
37151;SDS011;23046;50.112;8.952;2023-02-11T01:01:55;37.20;;;19.20;;
37151;SDS011;23046;50.112;8.952;2023-02-11T01:02:05;38.23;;;19.50;;
37151;SDS011;23046;50.112;8.952;2023-02-11T01:02:15;40.33;;;19.63;;
37151;SDS011;23046;50.112;8.952;2023-02-11T01:02:26;39.85;;;19.13;;